Time;durP1;ratioP1;P1;durP2;ratioP2;P2;SDS_P1;SDS_P2;PMS_P1;PMS_P2;Temp;Humidity;BMP_temperature;BMP_pressure;BME280_temperature;BME280_humidity;BME280_pressure;Samples;Min_cycle;Max_cycle;Signal;HPM_P1;HPM_P2
2023/04/23 00:01:45;;;;;;;10.00;5.85;;;;;;;;;;5156718;27;20030;-71
2023/04/23 00:04:14;;;;;;;8.55;5.28;;;;;;;;;;5156744;27;20050;-76
2023/04/23 00:06:41;;;;;;;8.82;5.60;;;;;;;;;;5156645;27;20417;-77
2023/04/23 00:09:08;;;;;;;10.75;5.95;;;;;;;;;;5155980;27;20023;-71
2023/04/23 00:11:34;;;;;;;8.50;5.82;;;;;;;;;;5156808;27;20026;-75
2023/04/23 00:14:00;;;;;;;10.43;5.78;;;;;;;;;;5156506;27;20090;-73
2023/04/23 00:16:25;;;;;;;8.63;5.43;;;;;;;;;;5156293;27;20034;-77
2023/04/23 00:18:51;;;;;;;12.40;6.10;;;;;;;;;;5156431;27;20015;-77
2023/04/23 00:21:16;;;;;;;10.07;6.05;;;;;;;;;;5156186;27;20388;-77
2023/04/23 00:23:42;;;;;;;8.02;5.28;;;;;;;;;;5155921;27;20025;-77
2023/04/23 00:26:07;;;;;;;9.75;5.72;;;;;;;;;;5156650;27;20464;-77
2023/04/23 00:28:33;;;;;;;10.07;5.82;;;;;;;;;;5156166;27;20027;-77
2023/04/23 00:30:58;;;;;;;12.50;6.13;;;;;;;;;;5155438;27;20027;-77
2023/04/23 00:33:24;;;;;;;11.63;6.10;;;;;;;;;;5136776;27;20565;-77
2023/04/23 00:35:49;;;;;;;7.93;5.65;;;;;;;;;;5135188;27;20043;-76
2023/04/23 00:38:15;;;;;;;9.45;5.68;;;;;;;;;;5135032;27;20047;-77
2023/04/23 00:40:41;;;;;;;10.07;5.93;;;;;;;;;;5135176;27;20027;-76
2023/04/23 00:43:08;;;;;;;12.18;6.15;;;;;;;;;;5135002;27;20038;-77
2023/04/23 00:45:34;;;;;;;12.30;6.10;;;;;;;;;;5134871;27;20039;-74
2023/04/23 00:48:01;;;;;;;8.80;4.97;;;;;;;;;;5134738;27;20036;-79
2023/04/23 00:50:26;;;;;;;9.35;5.85;;;;;;;;;;5134939;27;20066;-77
2023/04/23 00:52:52;;;;;;;9.27;5.65;;;;;;;;;;5134569;27;20156;-77
2023/04/23 00:55:19;;;;;;;11.52;5.85;;;;;;;;;;5134773;27;20111;-75
2023/04/23 00:57:45;;;;;;;10.50;5.68;;;;;;;;;;5135016;27;20079;-76
2023/04/23 01:00:12;;;;;;;8.50;6.22;;;;;;;;;;5134757;27;20390;-77
2023/04/23 01:02:40;;;;;;;10.65;6.93;;;;;;;;;;5134270;27;20551;-75
2023/04/23 01:05:08;;;;;;;10.02;6.00;;;;;;;;;;5134152;27;20034;-76
2023/04/23 01:07:34;;;;;;;11.18;6.10;;;;;;;;;;5134162;27;20393;-76
2023/04/23 01:10:00;;;;;;;12.73;6.00;;;;;;;;;;5134429;27;20023;-77
2023/04/23 01:12:25;;;;;;;11.02;6.10;;;;;;;;;;5134594;27;20034;-76
2023/04/23 01:14:51;;;;;;;11.85;6.15;;;;;;;;;;5134534;27;20035;-77
2023/04/23 01:17:16;;;;;;;11.23;6.20;;;;;;;;;;5134480;27;20023;-77
2023/04/23 01:19:42;;;;;;;9.82;5.82;;;;;;;;;;5134733;27;20377;-77
2023/04/23 01:22:15;;;;;;;10.77;6.35;;;;;;;;;;5134485;27;20461;-76
2023/04/23 01:24:41;;;;;;;9.05;5.75;;;;;;;;;;5134539;27;20037;-77
2023/04/23 01:27:07;;;;;;;9.70;6.00;;;;;;;;;;5134126;27;20473;-76
2023/04/23 01:29:33;;;;;;;8.40;5.22;;;;;;;;;;5134689;27;20023;-76
2023/04/23 01:31:59;;;;;;;9.70;6.13;;;;;;;;;;5134025;27;20091;-73
2023/04/23 01:34:24;;;;;;;12.77;7.22;;;;;;;;;;5134213;27;20027;-76
2023/04/23 01:36:51;;;;;;;10.98;5.93;;;;;;;;;;5133748;27;20027;-74
2023/04/23 01:39:16;;;;;;;9.63;5.88;;;;;;;;;;5133925;27;20034;-77
2023/04/23 01:41:43;;;;;;;10.63;6.20;;;;;;;;;;5133851;27;20027;-76
2023/04/23 01:44:09;;;;;;;13.02;6.15;;;;;;;;;;5132734;27;20027;-75
2023/04/23 01:46:35;;;;;;;9.70;6.20;;;;;;;;;;5133625;27;20062;-76
2023/04/23 01:49:01;;;;;;;10.77;6.35;;;;;;;;;;5134087;27;20106;-74
2023/04/23 01:51:28;;;;;;;10.23;5.82;;;;;;;;;;5133952;27;20038;-71
2023/04/23 01:53:53;;;;;;;8.50;5.05;;;;;;;;;;5134553;28;20027;-76
2023/04/23 01:56:24;;;;;;;12.88;5.90;;;;;;;;;;5134567;27;20080;-76
2023/04/23 01:58:50;;;;;;;16.30;6.78;;;;;;;;;;5134486;27;20061;-73
2023/04/23 02:01:16;;;;;;;7.65;4.97;;;;;;;;;;5133120;28;20023;-74
2023/04/23 02:03:41;;;;;;;10.63;6.13;;;;;;;;;;5134795;28;20412;-76
2023/04/23 02:06:07;;;;;;;9.63;6.00;;;;;;;;;;5133832;27;20097;-72
2023/04/23 02:08:32;;;;;;;11.30;6.10;;;;;;;;;;5133982;28;20362;-77
2023/04/23 02:10:58;;;;;;;10.25;6.60;;;;;;;;;;5134207;28;20027;-75
2023/04/23 02:13:23;;;;;;;14.25;6.25;;;;;;;;;;5134148;27;20027;-76
2023/04/23 02:15:49;;;;;;;10.38;6.50;;;;;;;;;;5133781;28;20176;-76
2023/04/23 02:18:14;;;;;;;10.13;6.18;;;;;;;;;;5133860;27;20350;-75
2023/04/23 02:20:40;;;;;;;11.20;6.07;;;;;;;;;;5133580;28;20031;-72
2023/04/23 02:23:08;;;;;;;16.70;6.70;;;;;;;;;;5133538;27;20027;-76
2023/04/23 02:25:37;;;;;;;10.13;5.40;;;;;;;;;;5133729;27;20105;-74
2023/04/23 02:28:05;;;;;;;11.63;6.00;;;;;;;;;;5133786;27;20031;-74
2023/04/23 02:30:31;;;;;;;10.98;5.65;;;;;;;;;;5133617;28;20064;-77
2023/04/23 02:32:57;;;;;;;11.02;6.32;;;;;;;;;;5133110;27;20035;-76
2023/04/23 02:35:23;;;;;;;12.52;6.28;;;;;;;;;;5133390;27;20027;-77
2023/04/23 02:37:48;;;;;;;11.10;6.18;;;;;;;;;;5133848;27;20469;-70
2023/04/23 02:40:14;;;;;;;11.88;6.68;;;;;;;;;;5133699;28;20023;-76
2023/04/23 02:42:39;;;;;;;13.35;6.50;;;;;;;;;;5133520;27;20061;-77
2023/04/23 02:45:05;;;;;;;9.27;6.35;;;;;;;;;;5133509;27;20030;-72
2023/04/23 02:47:31;;;;;;;10.70;6.60;;;;;;;;;;5134459;27;20042;-70
2023/04/23 02:49:57;;;;;;;10.23;6.78;;;;;;;;;;5153934;27;20015;-71
2023/04/23 02:52:22;;;;;;;10.88;7.20;;;;;;;;;;5154199;27;20022;-75
2023/04/23 02:54:47;;;;;;;12.85;7.50;;;;;;;;;;5155596;27;20023;-69
2023/04/23 02:57:15;;;;;;;9.50;6.20;;;;;;;;;;5156528;27;20326;-75
2023/04/23 02:59:41;;;;;;;10.88;6.65;;;;;;;;;;5157964;27;20441;-76
2023/04/23 03:02:06;;;;;;;10.43;6.85;;;;;;;;;;5157657;27;20105;-75
2023/04/23 03:04:32;;;;;;;11.50;7.13;;;;;;;;;;5157813;27;20061;-74
2023/04/23 03:06:57;;;;;;;14.25;7.70;;;;;;;;;;5157939;27;20054;-76
2023/04/23 03:09:22;;;;;;;12.13;7.20;;;;;;;;;;5157770;27;20395;-71
2023/04/23 03:11:48;;;;;;;10.57;6.72;;;;;;;;;;5157615;27;20019;-74
2023/04/23 03:14:13;;;;;;;9.75;6.70;;;;;;;;;;5157414;27;20027;-75
2023/04/23 03:16:39;;;;;;;11.80;7.45;;;;;;;;;;5157375;27;20388;-74
2023/04/23 03:19:04;;;;;;;11.65;7.03;;;;;;;;;;5157034;27;20018;-73
2023/04/23 03:21:30;;;;;;;11.00;6.70;;;;;;;;;;5157201;27;20027;-73
2023/04/23 03:23:55;;;;;;;12.40;7.18;;;;;;;;;;5157453;27;20031;-75
2023/04/23 03:26:21;;;;;;;12.93;6.43;;;;;;;;;;5157359;27;20462;-75
2023/04/23 03:28:46;;;;;;;13.32;6.93;;;;;;;;;;5157166;27;20054;-75
2023/04/23 03:31:12;;;;;;;9.57;6.35;;;;;;;;;;5157337;27;20015;-76
2023/04/23 03:33:37;;;;;;;12.25;7.30;;;;;;;;;;5135681;27;20058;-77
2023/04/23 03:36:03;;;;;;;12.30;6.85;;;;;;;;;;5136068;27;20026;-77
2023/04/23 03:38:28;;;;;;;11.93;7.32;;;;;;;;;;5136193;27;20049;-74
2023/04/23 03:40:54;;;;;;;12.63;7.30;;;;;;;;;;5136281;27;20055;-77
2023/04/23 03:43:19;;;;;;;10.05;6.50;;;;;;;;;;5136403;27;20501;-77
2023/04/23 03:45:45;;;;;;;10.82;6.78;;;;;;;;;;5136483;27;20040;-77
2023/04/23 03:48:10;;;;;;;9.73;7.00;;;;;;;;;;5136172;27;20058;-76
2023/04/23 03:50:39;;;;;;;10.73;6.95;;;;;;;;;;5136305;27;20039;-77
2023/04/23 03:53:05;;;;;;;11.15;7.47;;;;;;;;;;5136225;27;20365;-77
2023/04/23 03:55:30;;;;;;;14.15;7.30;;;;;;;;;;5136068;27;20035;-78
2023/04/23 03:57:56;;;;;;;11.35;7.55;;;;;;;;;;5135737;27;20019;-77
2023/04/23 04:00:21;;;;;;;13.30;7.20;;;;;;;;;;5136124;27;20144;-77
2023/04/23 04:02:47;;;;;;;14.95;7.78;;;;;;;;;;5135763;27;20027;-77
2023/04/23 04:05:12;;;;;;;13.98;7.53;;;;;;;;;;5135709;27;20054;-77
2023/04/23 04:07:38;;;;;;;12.15;7.50;;;;;;;;;;5135024;27;20473;-77
2023/04/23 04:10:05;;;;;;;9.43;6.85;;;;;;;;;;5136080;27;20087;-77
2023/04/23 04:12:31;;;;;;;11.88;7.68;;;;;;;;;;5135772;27;20015;-76
2023/04/23 04:14:56;;;;;;;14.88;8.00;;;;;;;;;;5135375;27;20457;-76
2023/04/23 04:17:21;;;;;;;11.57;7.25;;;;;;;;;;5135215;27;20026;-77
2023/04/23 04:19:47;;;;;;;10.07;6.53;;;;;;;;;;5135622;27;20029;-77
2023/04/23 04:22:13;;;;;;;12.25;7.47;;;;;;;;;;5135977;27;20047;-76
2023/04/23 04:24:40;;;;;;;11.73;6.95;;;;;;;;;;5135784;27;20034;-77
2023/04/23 04:27:06;;;;;;;10.20;6.97;;;;;;;;;;5135318;27;20079;-76
2023/04/23 04:29:32;;;;;;;11.73;6.50;;;;;;;;;;5135526;27;20023;-76
2023/04/23 04:31:58;;;;;;;13.70;7.18;;;;;;;;;;5134635;27;20047;-76
2023/04/23 04:34:23;;;;;;;13.35;7.07;;;;;;;;;;5135083;27;20107;-72
2023/04/23 04:36:52;;;;;;;14.13;7.13;;;;;;;;;;5134960;27;20031;-75
2023/04/23 04:39:18;;;;;;;12.30;7.38;;;;;;;;;;5135081;27;20033;-68
2023/04/23 04:41:44;;;;;;;12.15;7.30;;;;;;;;;;5135074;27;20031;-69
2023/04/23 04:44:10;;;;;;;11.43;6.95;;;;;;;;;;5135125;27;20448;-76
2023/04/23 04:46:39;;;;;;;12.60;7.20;;;;;;;;;;5135048;27;20027;-69
2023/04/23 04:49:07;;;;;;;9.30;6.80;;;;;;;;;;5134864;27;20114;-77
2023/04/23 04:51:33;;;;;;;10.90;7.35;;;;;;;;;;5135075;27;20037;-74
2023/04/23 04:53:58;;;;;;;12.75;7.18;;;;;;;;;;5134966;27;20110;-69
2023/04/23 04:56:24;;;;;;;10.45;7.00;;;;;;;;;;5134620;27;20103;-77
2023/04/23 04:58:50;;;;;;;10.07;6.85;;;;;;;;;;5134569;27;20155;-71
2023/04/23 05:01:17;;;;;;;12.63;7.32;;;;;;;;;;5134675;27;20027;-71
2023/04/23 05:03:43;;;;;;;10.23;6.90;;;;;;;;;;5134647;27;20132;-76
2023/04/23 05:06:08;;;;;;;12.95;7.05;;;;;;;;;;5134629;27;20489;-76
2023/04/23 05:08:33;;;;;;;13.75;7.25;;;;;;;;;;5134567;27;20533;-76
2023/04/23 05:11:00;;;;;;;13.70;7.10;;;;;;;;;;5134486;27;20024;-76
2023/04/23 05:13:26;;;;;;;9.63;6.55;;;;;;;;;;5134137;27;20023;-77
2023/04/23 05:15:51;;;;;;;11.52;6.25;;;;;;;;;;5134304;27;20027;-74
2023/04/23 05:18:16;;;;;;;10.43;6.75;;;;;;;;;;5133033;27;20488;-74
2023/04/23 05:20:42;;;;;;;9.55;6.65;;;;;;;;;;5134518;27;20023;-67
2023/04/23 05:23:07;;;;;;;10.68;6.85;;;;;;;;;;5134281;27;20030;-68
2023/04/23 05:25:34;;;;;;;10.15;6.75;;;;;;;;;;5134439;27;20023;-77
2023/04/23 05:28:00;;;;;;;12.43;6.68;;;;;;;;;;5133859;27;20031;-76
2023/04/23 05:30:26;;;;;;;9.18;6.95;;;;;;;;;;5134264;27;20491;-70
2023/04/23 05:32:51;;;;;;;11.15;6.53;;;;;;;;;;5133635;27;20051;-71
2023/04/23 05:35:17;;;;;;;9.38;6.55;;;;;;;;;;5133912;27;20363;-72
2023/04/23 05:37:43;;;;;;;11.50;7.15;;;;;;;;;;5133919;27;20055;-68
2023/04/23 05:40:09;;;;;;;11.00;6.88;;;;;;;;;;5133965;27;20027;-72
2023/04/23 05:42:35;;;;;;;11.25;7.25;;;;;;;;;;5133851;27;20501;-70
2023/04/23 05:45:01;;;;;;;13.23;7.20;;;;;;;;;;5133896;27;20047;-69
2023/04/23 05:47:28;;;;;;;10.50;6.97;;;;;;;;;;5134063;27;20015;-74
2023/04/23 05:49:56;;;;;;;10.55;6.97;;;;;;;;;;5133831;27;20023;-67
2023/04/23 05:52:21;;;;;;;11.10;7.22;;;;;;;;;;5133792;27;20031;-74
2023/04/23 05:54:47;;;;;;;11.25;7.28;;;;;;;;;;5133997;27;20034;-69
2023/04/23 05:57:12;;;;;;;10.73;7.28;;;;;;;;;;5132216;28;20031;-68
2023/04/23 05:59:38;;;;;;;11.35;7.60;;;;;;;;;;5133689;27;20019;-74
2023/04/23 06:02:03;;;;;;;13.20;7.10;;;;;;;;;;5133751;27;20295;-72
2023/04/23 06:04:29;;;;;;;11.68;7.05;;;;;;;;;;5133511;27;20060;-69
2023/04/23 06:06:54;;;;;;;11.63;6.93;;;;;;;;;;5133925;27;20032;-73
2023/04/23 06:09:20;;;;;;;11.52;7.35;;;;;;;;;;5133614;27;20152;-69
2023/04/23 06:11:45;;;;;;;12.45;7.13;;;;;;;;;;5133659;27;20023;-68
2023/04/23 06:14:11;;;;;;;11.43;7.00;;;;;;;;;;5133638;27;20346;-69
2023/04/23 06:16:36;;;;;;;16.25;7.63;;;;;;;;;;5133684;27;20429;-67
2023/04/23 06:19:02;;;;;;;14.68;6.88;;;;;;;;;;5133841;28;20444;-70
2023/04/23 06:21:28;;;;;;;13.77;7.15;;;;;;;;;;5134163;27;20358;-69
2023/04/23 06:23:53;;;;;;;11.30;7.57;;;;;;;;;;5133625;27;20030;-74
2023/04/23 06:26:19;;;;;;;14.27;6.82;;;;;;;;;;5133152;28;20102;-70
2023/04/23 06:28:45;;;;;;;11.80;7.22;;;;;;;;;;5133456;27;20407;-71
2023/04/23 06:31:12;;;;;;;11.70;7.63;;;;;;;;;;5137340;27;20035;-75
2023/04/23 06:33:37;;;;;;;14.75;7.68;;;;;;;;;;5137028;27;20031;-76
2023/04/23 06:36:03;;;;;;;12.80;7.18;;;;;;;;;;5136249;27;20016;-75
2023/04/23 06:38:29;;;;;;;10.73;6.65;;;;;;;;;;5137551;27;20038;-75
2023/04/23 06:40:54;;;;;;;10.05;7.40;;;;;;;;;;5137716;27;20027;-72
2023/04/23 06:43:20;;;;;;;10.60;7.25;;;;;;;;;;5137712;27;20056;-75
2023/04/23 06:45:45;;;;;;;13.10;7.20;;;;;;;;;;5137497;27;20051;-72
2023/04/23 06:48:11;;;;;;;15.40;7.78;;;;;;;;;;5137138;27;20076;-75
2023/04/23 06:50:37;;;;;;;15.02;8.07;;;;;;;;;;5137309;27;20343;-75
2023/04/23 06:53:02;;;;;;;11.13;7.55;;;;;;;;;;5137490;27;20488;-78
2023/04/23 06:55:28;;;;;;;13.20;8.27;;;;;;;;;;5137352;27;20423;-75
2023/04/23 06:57:54;;;;;;;12.32;7.90;;;;;;;;;;5137118;27;20526;-72
2023/04/23 07:00:21;;;;;;;10.43;7.82;;;;;;;;;;5137199;27;20015;-73
2023/04/23 07:02:46;;;;;;;12.10;8.10;;;;;;;;;;5134891;27;20113;-78
2023/04/23 07:05:12;;;;;;;13.15;7.60;;;;;;;;;;5124601;27;20062;-68
2023/04/23 07:07:37;;;;;;;13.15;7.47;;;;;;;;;;5116182;28;20042;-71
2023/04/23 07:10:06;;;;;;;12.68;7.25;;;;;;;;;;5115932;28;20023;-75
2023/04/23 07:12:32;;;;;;;9.73;7.03;;;;;;;;;;5128671;27;20023;-77
2023/04/23 07:14:57;;;;;;;11.90;6.80;;;;;;;;;;5133874;27;20466;-77
2023/04/23 07:17:23;;;;;;;13.13;6.47;;;;;;;;;;5136206;27;20019;-72
2023/04/23 07:19:48;;;;;;;10.77;6.72;;;;;;;;;;5136177;27;20382;-73
2023/04/23 07:22:14;;;;;;;12.35;6.88;;;;;;;;;;5136760;27;20488;-78
2023/04/23 07:24:40;;;;;;;9.90;6.82;;;;;;;;;;5135894;27;20046;-71
2023/04/23 07:27:06;;;;;;;11.93;6.22;;;;;;;;;;5136236;27;20027;-75
2023/04/23 07:29:31;;;;;;;9.55;5.47;;;;;;;;;;5136531;27;20031;-64
2023/04/23 07:31:57;;;;;;;9.45;5.40;;;;;;;;;;5136001;27;20055;-78
2023/04/23 07:34:22;;;;;;;7.50;4.97;;;;;;;;;;5136188;27;20027;-74
2023/04/23 07:36:48;;;;;;;14.13;5.72;;;;;;;;;;5136158;27;20027;-78
2023/04/23 07:39:13;;;;;;;8.32;5.00;;;;;;;;;;5136181;27;20102;-82
2023/04/23 07:41:39;;;;;;;9.35;5.32;;;;;;;;;;5135804;27;20215;-72
2023/04/23 07:44:04;;;;;;;6.60;5.20;;;;;;;;;;5136609;27;20080;-73
2023/04/23 07:46:30;;;;;;;8.48;5.07;;;;;;;;;;5136178;27;20023;-67
2023/04/23 07:48:55;;;;;;;7.85;5.40;;;;;;;;;;5136524;27;20023;-80
2023/04/23 07:51:25;;;;;;;8.35;4.90;;;;;;;;;;5136110;27;20469;-76
2023/04/23 07:53:53;;;;;;;8.30;5.10;;;;;;;;;;5136277;27;20034;-81
2023/04/23 07:56:20;;;;;;;8.85;5.47;;;;;;;;;;5122209;27;20154;-75
2023/04/23 07:58:45;;;;;;;7.75;5.15;;;;;;;;;;5118416;27;20024;-79
2023/04/23 08:01:11;;;;;;;8.25;5.80;;;;;;;;;;5135598;27;20023;-72
2023/04/23 08:03:36;;;;;;;6.72;4.38;;;;;;;;;;5134145;27;20602;-78
2023/04/23 08:06:03;;;;;;;9.15;5.25;;;;;;;;;;5132660;27;20038;-76
2023/04/23 08:08:29;;;;;;;8.48;4.88;;;;;;;;;;5134398;27;20024;-70
2023/04/23 08:10:54;;;;;;;7.18;5.32;;;;;;;;;;5135373;27;20029;-72
2023/04/23 08:13:20;;;;;;;8.07;4.75;;;;;;;;;;5135404;27;20031;-68
2023/04/23 08:15:45;;;;;;;8.95;5.40;;;;;;;;;;5135345;27;20046;-72
2023/04/23 08:18:11;;;;;;;12.27;5.28;;;;;;;;;;5135504;27;20031;-72
2023/04/23 08:20:36;;;;;;;7.13;4.80;;;;;;;;;;5134551;27;20420;-68
2023/04/23 08:23:02;;;;;;;9.02;4.90;;;;;;;;;;5135128;27;20027;-73
2023/04/23 08:25:28;;;;;;;7.85;5.00;;;;;;;;;;5135049;27;20351;-71
2023/04/23 08:27:53;;;;;;;8.50;5.47;;;;;;;;;;5134237;27;20046;-79
2023/04/23 08:30:19;;;;;;;8.85;5.05;;;;;;;;;;5135158;27;20031;-68
2023/04/23 08:32:48;;;;;;;7.50;4.80;;;;;;;;;;5134810;27;20451;-68
2023/04/23 08:35:14;;;;;;;8.02;5.50;;;;;;;;;;5133626;27;20046;-70
2023/04/23 08:37:39;;;;;;;10.95;5.60;;;;;;;;;;5135281;27;20037;-72
2023/04/23 08:40:06;;;;;;;8.18;5.40;;;;;;;;;;5135515;27;20102;-66
2023/04/23 08:42:54;;;;;;;8.57;5.65;;;;;;;;;;5135269;27;20023;-66
2023/04/23 08:45:20;;;;;;;11.23;6.10;;;;;;;;;;5135252;27;20488;-77
2023/04/23 08:47:46;;;;;;;11.77;5.65;;;;;;;;;;5135463;27;20426;-69
2023/04/23 08:50:16;;;;;;;11.10;6.10;;;;;;;;;;5135262;27;20023;-70
2023/04/23 08:53:03;;;;;;;13.55;5.78;;;;;;;;;;5134311;27;20023;-73
2023/04/23 08:55:29;;;;;;;10.98;6.50;;;;;;;;;;5135568;27;20438;-66
2023/04/23 08:57:56;;;;;;;9.43;5.90;;;;;;;;;;5135294;27;20023;-71
2023/04/23 09:00:22;;;;;;;10.25;6.40;;;;;;;;;;5135449;27;20465;-77
2023/04/23 09:02:48;;;;;;;11.40;6.60;;;;;;;;;;5136392;27;20179;-67
2023/04/23 09:05:14;;;;;;;10.07;6.40;;;;;;;;;;5135057;27;20381;-69
2023/04/23 09:07:40;;;;;;;8.90;6.15;;;;;;;;;;5134785;27;20026;-70
2023/04/23 09:10:08;;;;;;;11.40;6.95;;;;;;;;;;5134953;27;20069;-76
2023/04/23 09:12:35;;;;;;;11.63;6.55;;;;;;;;;;5134997;27;20076;-68
2023/04/23 09:15:01;;;;;;;11.10;6.57;;;;;;;;;;5134875;27;20023;-75
2023/04/23 09:17:31;;;;;;;9.43;6.45;;;;;;;;;;5134939;27;20019;-69
2023/04/23 09:19:57;;;;;;;9.02;6.90;;;;;;;;;;5133195;27;20113;-73
2023/04/23 09:22:39;;;;;;;12.35;6.82;;;;;;;;;;5134773;27;20497;-75
2023/04/23 09:25:07;;;;;;;15.80;7.43;;;;;;;;;;5134717;27;20025;-70
2023/04/23 09:27:32;;;;;;;11.02;7.07;;;;;;;;;;5134650;27;20338;-72
2023/04/23 09:30:03;;;;;;;13.95;7.03;;;;;;;;;;5134347;27;20019;-76
2023/04/23 09:32:33;;;;;;;10.75;7.90;;;;;;;;;;5134576;27;20051;-80
2023/04/23 09:35:02;;;;;;;9.93;7.50;;;;;;;;;;5133873;27;20033;-78
2023/04/23 09:37:27;;;;;;;12.68;7.20;;;;;;;;;;5113589;28;20031;-70
2023/04/23 09:39:55;;;;;;;12.05;7.68;;;;;;;;;;5113817;28;20028;-72
2023/04/23 09:42:23;;;;;;;11.35;7.25;;;;;;;;;;5113683;28;20026;-64
2023/04/23 09:45:10;;;;;;;10.82;7.85;;;;;;;;;;5113733;28;20023;-66
2023/04/23 09:47:40;;;;;;;11.25;7.40;;;;;;;;;;5114148;28;20079;-68
2023/04/23 09:50:09;;;;;;;13.73;7.65;;;;;;;;;;5113619;28;20031;-71
2023/04/23 09:52:38;;;;;;;15.35;8.10;;;;;;;;;;5114499;28;20020;-68
2023/04/23 09:55:04;;;;;;;13.23;7.50;;;;;;;;;;5118208;28;20035;-65
2023/04/23 09:57:36;;;;;;;11.27;7.55;;;;;;;;;;5130036;27;20110;-75
2023/04/23 10:00:12;;;;;;;10.85;7.47;;;;;;;;;;5117497;27;20045;-79
2023/04/23 10:02:38;;;;;;;10.57;7.30;;;;;;;;;;5129250;28;20027;-80
2023/04/23 10:05:22;;;;;;;9.88;7.90;;;;;;;;;;5133815;27;20019;-76
2023/04/23 10:07:47;;;;;;;21.00;8.25;;;;;;;;;;5135819;27;20118;-79
2023/04/23 10:10:16;;;;;;;14.20;8.65;;;;;;;;;;5137997;27;20019;-78
2023/04/23 10:12:42;;;;;;;12.13;7.72;;;;;;;;;;5137342;27;20088;-79
2023/04/23 10:15:09;;;;;;;12.27;7.78;;;;;;;;;;5137506;27;20031;-79
2023/04/23 10:17:36;;;;;;;10.90;7.35;;;;;;;;;;5137699;27;20038;-79
2023/04/23 10:20:02;;;;;;;13.70;7.60;;;;;;;;;;5138402;27;20143;-80
2023/04/23 10:22:29;;;;;;;13.13;8.02;;;;;;;;;;5138730;27;20055;-77
2023/04/23 10:24:59;;;;;;;11.00;6.95;;;;;;;;;;5138257;27;20123;-75
2023/04/23 10:27:28;;;;;;;;;;;;;;;;;;5138522;27;20050;-64
2023/04/23 10:29:56;;;;;;;12.43;7.18;;;;;;;;;;5138025;27;19911;-73
2023/04/23 10:32:22;;;;;;;11.50;7.40;;;;;;;;;;5137448;27;20459;-78
2023/04/23 10:34:48;;;;;;;11.60;7.00;;;;;;;;;;5138267;27;20062;-78
2023/04/23 10:37:14;;;;;;;9.48;6.82;;;;;;;;;;5138462;27;20027;-82
2023/04/23 10:39:43;;;;;;;10.90;7.30;;;;;;;;;;5139170;27;20035;-81
2023/04/23 10:42:09;;;;;;;10.50;7.43;;;;;;;;;;5138002;27;20102;-73
2023/04/23 10:44:38;;;;;;;10.95;7.38;;;;;;;;;;5137766;27;20019;-80
2023/04/23 10:47:05;;;;;;;11.38;7.50;;;;;;;;;;5137965;27;20023;-74
2023/04/23 10:49:32;;;;;;;11.63;8.07;;;;;;;;;;5137677;27;20080;-75
2023/04/23 10:52:02;;;;;;;10.52;8.40;;;;;;;;;;5138136;27;20087;-69
2023/04/23 10:54:30;;;;;;;12.65;7.60;;;;;;;;;;5137458;27;20126;-73
2023/04/23 10:57:04;;;;;;;12.43;8.65;;;;;;;;;;5137755;27;20038;-74
2023/04/23 10:59:32;;;;;;;10.07;8.05;;;;;;;;;;5138837;27;20015;-71
2023/04/23 11:02:04;;;;;;;16.88;8.63;;;;;;;;;;5137662;27;20023;-81
2023/04/23 11:04:30;;;;;;;12.05;8.65;;;;;;;;;;5136133;27;20387;-76
2023/04/23 11:07:07;;;;;;;12.98;8.85;;;;;;;;;;5134591;27;20110;-73
2023/04/23 11:09:45;;;;;;;10.30;8.60;;;;;;;;;;5136307;27;20015;-73
2023/04/23 11:12:12;;;;;;;12.82;9.30;;;;;;;;;;5136329;27;20038;-75
2023/04/23 11:14:40;;;;;;;15.65;9.43;;;;;;;;;;5135773;27;20031;-74
2023/04/23 11:17:06;;;;;;;14.07;9.10;;;;;;;;;;5135418;27;20023;-75
2023/04/23 11:19:35;;;;;;;11.80;8.80;;;;;;;;;;5135920;27;20461;-76
2023/04/23 11:22:02;;;;;;;13.13;9.37;;;;;;;;;;5135967;27;20415;-75
2023/04/23 11:24:40;;;;;;;11.43;8.73;;;;;;;;;;5135850;27;20019;-72
2023/04/23 11:27:07;;;;;;;13.63;9.38;;;;;;;;;;5136029;27;20023;-76
2023/04/23 11:29:33;;;;;;;11.50;8.35;;;;;;;;;;5135673;27;20466;-69
2023/04/23 11:31:58;;;;;;;11.93;8.32;;;;;;;;;;5135198;27;20043;-77
2023/04/23 11:34:25;;;;;;;10.63;8.15;;;;;;;;;;5135647;27;20038;-76
2023/04/23 11:36:53;;;;;;;9.30;7.50;;;;;;;;;;5135621;27;20801;-77
2023/04/23 11:39:25;;;;;;;10.32;7.38;;;;;;;;;;5135553;27;20050;-76
2023/04/23 11:41:51;;;;;;;10.18;7.88;;;;;;;;;;5134390;27;20030;-75
2023/04/23 11:44:18;;;;;;;11.05;7.97;;;;;;;;;;5134184;27;20031;-75
2023/04/23 11:46:46;;;;;;;12.35;8.10;;;;;;;;;;5133575;27;20378;-75
2023/04/23 11:49:12;;;;;;;11.20;8.02;;;;;;;;;;5132571;27;20019;-76
2023/04/23 11:51:42;;;;;;;11.80;8.32;;;;;;;;;;5135000;27;20098;-77
2023/04/23 11:54:08;;;;;;;11.98;8.25;;;;;;;;;;5134802;27;20121;-74
2023/04/23 11:56:34;;;;;;;14.65;8.60;;;;;;;;;;5134430;27;20027;-68
2023/04/23 11:59:03;;;;;;;10.13;8.63;;;;;;;;;;5132931;27;20019;-79
2023/04/23 12:01:48;;;;;;;12.38;9.27;;;;;;;;;;5136918;27;20538;-77
2023/04/23 12:04:23;;;;;;;11.30;8.52;;;;;;;;;;5136442;27;20035;-81
2023/04/23 12:06:50;;;;;;;11.45;8.90;;;;;;;;;;5119844;27;20023;-75
2023/04/23 12:09:17;;;;;;;14.68;10.95;;;;;;;;;;5136739;27;20019;-82
2023/04/23 12:11:44;;;;;;;15.85;12.68;;;;;;;;;;5135253;27;20355;-73
2023/04/23 12:14:11;;;;;;;17.23;11.15;;;;;;;;;;5129587;27;20023;-71
2023/04/23 12:16:40;;;;;;;13.00;7.10;;;;;;;;;;5134045;27;20075;-74
2023/04/23 12:19:29;;;;;;;6.97;5.00;;;;;;;;;;5134418;27;20038;-78
2023/04/23 12:22:00;;;;;;;8.90;5.90;;;;;;;;;;5121441;27;20087;-77
2023/04/23 12:24:30;;;;;;;7.75;5.20;;;;;;;;;;5134253;27;20076;-77
2023/04/23 12:27:01;;;;;;;5.18;3.90;;;;;;;;;;5133736;27;20522;-77
2023/04/23 12:29:29;;;;;;;5.60;4.78;;;;;;;;;;5134988;27;20462;-75
2023/04/23 12:31:57;;;;;;;5.53;4.03;;;;;;;;;;5134794;27;20042;-71
2023/04/23 12:34:23;;;;;;;3.85;3.15;;;;;;;;;;5148134;27;20030;-79
2023/04/23 12:36:50;;;;;;;6.55;3.63;;;;;;;;;;5134523;27;20027;-78
2023/04/23 12:39:23;;;;;;;4.07;2.75;;;;;;;;;;5134644;27;20035;-74
2023/04/23 12:41:54;;;;;;;4.05;2.65;;;;;;;;;;5134796;27;20517;-80
2023/04/23 12:44:20;;;;;;;3.83;2.50;;;;;;;;;;5134228;27;20035;-78
2023/04/23 12:47:01;;;;;;;4.20;2.45;;;;;;;;;;5134605;27;20067;-74
2023/04/23 12:49:28;;;;;;;3.58;2.78;;;;;;;;;;5134608;27;20032;-74
2023/04/23 12:51:59;;;;;;;3.38;2.70;;;;;;;;;;5134858;27;20022;-77
2023/04/23 12:54:31;;;;;;;5.00;2.90;;;;;;;;;;5134558;27;20376;-73
2023/04/23 12:57:02;;;;;;;3.40;2.40;;;;;;;;;;5134484;27;20089;-65
2023/04/23 12:59:28;;;;;;;4.30;3.00;;;;;;;;;;5133339;27;20019;-80
2023/04/23 13:01:54;;;;;;;5.30;3.00;;;;;;;;;;5134472;27;20033;-77
2023/04/23 13:04:20;;;;;;;5.15;3.70;;;;;;;;;;5134034;27;20031;-78
2023/04/23 13:06:45;;;;;;;3.40;2.50;;;;;;;;;;5134309;27;20027;-79
2023/04/23 13:09:11;;;;;;;4.50;1.92;;;;;;;;;;5138415;27;20023;-72
2023/04/23 13:11:37;;;;;;;3.45;1.90;;;;;;;;;;5155141;27;20079;-73
2023/04/23 13:14:04;;;;;;;3.83;2.30;;;;;;;;;;5155456;27;20022;-82
2023/04/23 13:16:29;;;;;;;2.35;1.63;;;;;;;;;;5155381;27;20083;-78
2023/04/23 13:18:55;;;;;;;6.95;3.15;;;;;;;;;;5155110;27;20027;-77
2023/04/23 13:21:20;;;;;;;3.40;1.83;;;;;;;;;;5153753;27;20483;-79
2023/04/23 13:23:46;;;;;;;4.40;1.60;;;;;;;;;;5154959;27;20023;-79
2023/04/23 13:26:12;;;;;;;2.90;1.60;;;;;;;;;;5155011;27;20489;-79
2023/04/23 13:28:37;;;;;;;2.42;1.63;;;;;;;;;;5154880;27;20473;-77
2023/04/23 13:31:03;;;;;;;3.92;1.77;;;;;;;;;;5154982;27;20057;-79
2023/04/23 13:33:30;;;;;;;2.75;1.80;;;;;;;;;;5135250;27;20047;-79
2023/04/23 13:35:57;;;;;;;2.58;2.00;;;;;;;;;;5134161;27;20104;-81
2023/04/23 13:38:24;;;;;;;2.70;1.15;;;;;;;;;;5134251;27;20397;-71
2023/04/23 13:40:49;;;;;;;1.60;1.17;;;;;;;;;;5134281;27;20019;-80
2023/04/23 13:43:15;;;;;;;2.03;1.10;;;;;;;;;;5134570;27;20095;-78
2023/04/23 13:45:40;;;;;;;2.20;1.15;;;;;;;;;;5134398;27;20487;-80
2023/04/23 13:48:06;;;;;;;2.25;1.02;;;;;;;;;;5134683;27;20429;-80
2023/04/23 13:50:32;;;;;;;2.80;0.82;;;;;;;;;;5134120;27;20492;-77
2023/04/23 13:52:58;;;;;;;2.92;0.90;;;;;;;;;;5134613;27;20023;-73
2023/04/23 13:55:24;;;;;;;1.30;0.82;;;;;;;;;;5134552;27;20031;-74
2023/04/23 13:57:49;;;;;;;2.60;1.17;;;;;;;;;;5135001;27;20377;-78
2023/04/23 14:00:15;;;;;;;2.10;1.40;;;;;;;;;;5134119;27;20015;-77
2023/04/23 14:02:41;;;;;;;4.57;1.50;;;;;;;;;;5132890;28;20027;-78
2023/04/23 14:05:07;;;;;;;1.90;1.30;;;;;;;;;;5135349;27;20462;-78
2023/04/23 14:07:33;;;;;;;3.15;1.80;;;;;;;;;;5135625;27;20028;-80
2023/04/23 14:09:59;;;;;;;3.38;1.10;;;;;;;;;;5130295;27;20072;-74
2023/04/23 14:12:27;;;;;;;1.75;0.90;;;;;;;;;;5132267;27;20035;-74
2023/04/23 14:14:53;;;;;;;1.65;1.23;;;;;;;;;;5133013;27;20019;-75
2023/04/23 14:17:19;;;;;;;2.38;1.20;;;;;;;;;;5131940;28;20023;-75
2023/04/23 14:19:45;;;;;;;2.42;1.40;;;;;;;;;;5133305;27;20024;-74
2023/04/23 14:22:11;;;;;;;9.98;4.10;;;;;;;;;;5133279;27;20027;-74
2023/04/23 14:24:45;;;;;;;7.40;2.65;;;;;;;;;;5132756;27;20031;-74
2023/04/23 14:27:10;;;;;;;3.65;1.98;;;;;;;;;;5133364;27;20046;-74
2023/04/23 14:29:49;;;;;;;4.80;2.67;;;;;;;;;;5131863;28;20469;-74
2023/04/23 14:32:14;;;;;;;7.53;2.30;;;;;;;;;;5132874;27;20118;-74
2023/04/23 14:34:40;;;;;;;2.97;2.00;;;;;;;;;;5132985;27;20099;-68